Time;durP1;ratioP1;P1;durP2;ratioP2;P2;SDS_P1;SDS_P2;PMS_P1;PMS_P2;Temp;Humidity;BMP_temperature;BMP_pressure;BME280_temperature;BME280_humidity;BME280_pressure;Samples;Min_cycle;Max_cycle;Signal;HPM_P1;HPM_P2
2022/01/01 00:00:37;;;;;;;100.38;69.30;;;;;;;3.08;100.00;100408.84;6180700;23;20047;-78
2022/01/01 00:03:02;;;;;;;102.25;71.03;;;;;;;3.13;100.00;100419.47;6178935;23;20343;-79
2022/01/01 00:05:28;;;;;;;109.85;78.07;;;;;;;3.12;100.00;100394.00;6181368;23;20045;-78
2022/01/01 00:07:53;;;;;;;113.90;78.43;;;;;;;3.15;100.00;100387.00;6182375;23;20017;-78
2022/01/01 00:10:21;;;;;;;113.68;76.55;;;;;;;3.21;100.00;100393.69;6181644;23;20017;-78
2022/01/01 00:12:47;;;;;;;129.77;83.70;;;;;;;3.32;100.00;100407.50;6181799;23;20044;-79
2022/01/01 00:15:14;;;;;;;128.05;83.88;;;;;;;3.32;100.00;100402.78;6181813;23;20343;-78
2022/01/01 00:17:40;;;;;;;124.15;81.55;;;;;;;3.33;100.00;100414.53;6156724;23;20017;-78
2022/01/01 00:20:09;;;;;;;126.10;81.40;;;;;;;3.31;100.00;100409.47;6181980;23;20001;-78
2022/01/01 00:22:35;;;;;;;119.97;79.07;;;;;;;3.29;100.00;100414.53;6183412;23;20009;-78
2022/01/01 00:25:01;;;;;;;120.97;78.60;;;;;;;3.20;100.00;100422.25;6181946;23;20013;-79
2022/01/01 00:27:26;;;;;;;117.00;77.30;;;;;;;3.16;100.00;100413.22;6182752;23;20316;-81
2022/01/01 00:29:52;;;;;;;122.30;78.13;;;;;;;3.07;100.00;100418.25;6183280;23;20013;-81
2022/01/01 00:32:17;;;;;;;129.57;83.07;;;;;;;3.12;100.00;100421.41;6182662;23;20100;-81
2022/01/01 00:34:43;;;;;;;240.80;145.10;;;;;;;3.08;100.00;100428.03;6156967;23;20009;-81
2022/01/01 00:37:08;;;;;;;198.82;124.25;;;;;;;3.14;100.00;100423.78;6182479;23;20412;-80
2022/01/01 00:39:34;;;;;;;170.13;104.45;;;;;;;3.12;100.00;100453.50;6183621;23;20001;-81
2022/01/01 00:41:59;;;;;;;161.40;102.20;;;;;;;3.11;100.00;100457.44;6182964;23;20065;-81
2022/01/01 00:44:25;;;;;;;156.15;97.63;;;;;;;3.17;100.00;100462.19;6156564;23;20016;-79
2022/01/01 00:46:50;;;;;;;147.68;97.82;;;;;;;3.13;100.00;100455.09;6183131;23;20367;-78
2022/01/01 00:49:16;;;;;;;106.22;70.03;;;;;;;2.94;100.00;100449.81;6183376;23;20040;-78
2022/01/01 00:51:42;;;;;;;92.78;61.35;;;;;;;2.76;100.00;100466.84;6182576;23;20339;-78
2022/01/01 00:54:08;;;;;;;91.65;60.92;;;;;;;2.67;100.00;100466.34;6156920;23;20477;-78
2022/01/01 00:56:36;;;;;;;86.68;57.50;;;;;;;2.55;100.00;100461.09;6181085;23;20044;-78
2022/01/01 00:59:01;;;;;;;87.60;56.25;;;;;;;2.47;100.00;100461.41;6183072;23;20005;-78
2022/01/01 01:01:27;;;;;;;84.47;56.45;;;;;;;2.44;100.00;100473.09;6182404;23;20043;-81
2022/01/01 01:03:52;;;;;;;102.10;65.40;;;;;;;2.31;100.00;100458.84;6182894;23;20040;-81
2022/01/01 01:06:17;;;;;;;115.55;70.45;;;;;;;2.50;100.00;100461.44;6182465;23;20346;-78
2022/01/01 01:08:43;;;;;;;109.30;66.22;;;;;;;2.54;100.00;100472.44;6181638;23;20009;-78
2022/01/01 01:11:08;;;;;;;92.75;59.45;;;;;;;2.60;100.00;100499.13;6182949;23;20452;-78
2022/01/01 01:13:35;;;;;;;74.72;47.45;;;;;;;2.69;100.00;100485.94;6182746;23;20012;-78
2022/01/01 01:16:00;;;;;;;79.50;50.42;;;;;;;2.79;100.00;100474.31;6181381;23;20433;-79
2022/01/01 01:18:26;;;;;;;83.47;52.42;;;;;;;2.77;100.00;100457.47;6182564;23;20056;-78
2022/01/01 01:20:52;;;;;;;80.85;49.65;;;;;;;2.75;100.00;100468.00;6181257;23;20064;-79
2022/01/01 01:23:18;;;;;;;80.45;49.53;;;;;;;2.74;100.00;100474.66;6181273;23;20021;-78
2022/01/01 01:25:44;;;;;;;86.07;53.63;;;;;;;2.73;100.00;100481.28;6181166;23;20016;-78
2022/01/01 01:28:10;;;;;;;82.20;53.28;;;;;;;2.71;100.00;100480.88;6182364;23;20023;-78
2022/01/01 01:30:37;;;;;;;79.00;50.60;;;;;;;2.68;100.00;100489.84;6182628;23;20311;-78
2022/01/01 01:33:04;;;;;;;84.70;52.78;;;;;;;2.63;100.00;100475.69;6181163;23;20017;-78
2022/01/01 01:35:30;;;;;;;79.90;53.50;;;;;;;2.58;100.00;100474.06;6182618;23;20350;-79
2022/01/01 01:37:55;;;;;;;84.80;54.75;;;;;;;2.50;100.00;100475.16;6155940;23;20017;-78
2022/01/01 01:40:21;;;;;;;76.35;51.03;;;;;;;2.40;100.00;100494.94;6181142;23;20392;-78
2022/01/01 01:42:47;;;;;;;78.75;47.60;;;;;;;2.55;100.00;100477.53;6182765;23;20020;-78
2022/01/01 01:45:17;;;;;;;74.75;46.40;;;;;;;2.71;100.00;100472.66;6181077;23;20040;-78
2022/01/01 01:47:44;;;;;;;75.43;46.72;;;;;;;2.82;100.00;100486.47;6182392;23;20020;-78
2022/01/01 01:50:11;;;;;;;76.82;48.17;;;;;;;3.02;100.00;100471.44;6181055;23;20013;-78
2022/01/01 01:52:39;;;;;;;72.00;46.33;;;;;;;3.03;100.00;100466.75;6182385;23;20100;-78
2022/01/01 01:55:08;;;;;;;82.85;49.38;;;;;;;3.31;100.00;100475.25;6181171;23;20012;-78
2022/01/01 01:57:41;;;;;;;77.95;46.97;;;;;;;3.46;100.00;100478.91;6182299;23;20013;-79
2022/01/01 02:00:28;;;;;;;77.65;48.85;;;;;;;3.57;100.00;100475.09;6182773;23;20443;-81
2022/01/01 02:02:55;;;;;;;65.88;43.90;;;;;;;3.39;100.00;100467.88;6159430;23;20410;-80
2022/01/01 02:05:21;;;;;;;61.63;42.50;;;;;;;3.24;100.00;100461.47;6156079;23;20020;-80
2022/01/01 02:07:47;;;;;;;69.63;42.45;;;;;;;3.37;100.00;100461.97;6182844;23;20009;-80
2022/01/01 02:10:13;;;;;;;84.47;49.60;;;;;;;3.69;100.00;100458.34;6156500;23;20012;-80
2022/01/01 02:12:40;;;;;;;69.28;44.10;;;;;;;3.56;100.00;100450.81;6156177;23;20462;-80
2022/01/01 02:15:13;;;;;;;64.45;41.80;;;;;;;3.35;100.00;100450.63;6180941;23;20024;-80
2022/01/01 02:17:38;;;;;;;58.00;40.40;;;;;;;3.35;100.00;100458.84;6156477;23;20032;-80
2022/01/01 02:20:14;;;;;;;59.92;40.45;;;;;;;3.21;100.00;100451.25;6182579;23;20021;-80
2022/01/01 02:22:47;;;;;;;57.53;40.88;;;;;;;3.08;100.00;100463.66;6182550;23;20017;-83
2022/01/01 02:25:14;;;;;;;58.42;40.25;;;;;;;2.78;100.00;100448.09;6157323;23;20079;-83
2022/01/01 02:27:41;;;;;;;54.63;38.97;;;;;;;2.64;100.00;100452.59;6156295;23;20096;-82
2022/01/01 02:30:08;;;;;;;52.85;38.15;;;;;;;2.63;100.00;100470.22;6156387;23;20013;-83
2022/01/01 02:32:34;;;;;;;55.63;39.15;;;;;;;2.51;100.00;100468.47;6157910;23;20032;-83
2022/01/01 02:34:59;;;;;;;54.97;37.75;;;;;;;2.41;100.00;100469.16;6183559;23;20334;-82
2022/01/01 02:37:25;;;;;;;55.85;39.35;;;;;;;2.38;100.00;100480.84;6184173;23;20035;-80
2022/01/01 02:39:50;;;;;;;56.10;39.67;;;;;;;2.35;100.00;100478.84;6184940;23;20013;-80
2022/01/01 02:42:19;;;;;;;62.05;38.88;;;;;;;2.49;100.00;100487.25;6158067;23;20012;-80
2022/01/01 02:44:45;;;;;;;74.97;44.83;;;;;;;2.76;100.00;100491.50;6183211;23;20009;-80
2022/01/01 02:47:13;;;;;;;64.97;42.83;;;;;;;2.78;100.00;100494.66;6157746;23;20077;-80
2022/01/01 02:49:40;;;;;;;62.47;41.92;;;;;;;2.77;100.00;100503.25;6183122;23;20346;-80
2022/01/01 02:52:05;;;;;;;62.13;40.85;;;;;;;2.64;100.00;100493.69;6184240;23;20384;-80
2022/01/01 02:54:31;;;;;;;52.50;39.25;;;;;;;2.55;100.00;100491.22;6184364;23;20043;-80
2022/01/01 02:56:56;;;;;;;52.58;37.60;;;;;;;2.48;100.00;100502.09;6182977;23;20096;-80
2022/01/01 02:59:22;;;;;;;56.20;38.03;;;;;;;2.41;100.00;100488.31;6184247;23;20501;-82
2022/01/01 03:01:47;;;;;;;57.00;35.85;;;;;;;2.88;100.00;100486.94;6184607;23;20005;-83
2022/01/01 03:04:13;;;;;;;54.65;37.08;;;;;;;3.27;100.00;100496.38;6183636;23;20040;-83
2022/01/01 03:06:38;;;;;;;55.13;36.30;;;;;;;3.27;100.00;100482.66;6184598;23;20351;-82
2022/01/01 03:09:04;;;;;;;54.75;35.50;;;;;;;3.43;100.00;100496.94;6182729;23;20041;-83
2022/01/01 03:11:30;;;;;;;52.28;36.58;;;;;;;3.44;100.00;100503.19;6184030;23;20346;-83
2022/01/01 03:13:55;;;;;;;46.78;34.95;;;;;;;3.18;100.00;100485.72;6184293;23;20534;-83
2022/01/01 03:16:21;;;;;;;42.72;31.00;;;;;;;2.97;100.00;100490.97;6184221;23;20035;-83
2022/01/01 03:18:46;;;;;;;41.53;30.13;;;;;;;2.64;100.00;100501.91;6184326;23;20390;-80
2022/01/01 03:21:12;;;;;;;41.33;29.58;;;;;;;2.48;100.00;100499.34;6184141;23;20020;-80
2022/01/01 03:23:38;;;;;;;39.75;28.85;;;;;;;2.27;100.00;100510.81;6157822;23;20001;-81
2022/01/01 03:26:04;;;;;;;42.45;30.00;;;;;;;2.33;100.00;100516.75;6184222;23;20592;-80
2022/01/01 03:28:29;;;;;;;54.00;35.08;;;;;;;2.76;100.00;100502.44;6183911;23;20051;-80
2022/01/01 03:30:55;;;;;;;59.53;37.47;;;;;;;2.99;100.00;100509.78;6157718;23;22347;-80
2022/01/01 03:33:21;;;;;;;46.90;33.08;;;;;;;2.87;100.00;100521.00;6157595;23;20023;-80
2022/01/01 03:35:48;;;;;;;41.60;31.13;;;;;;;2.57;100.00;100527.25;6157856;23;20016;-80
2022/01/01 03:38:14;;;;;;;41.22;29.55;;;;;;;2.45;100.00;100523.97;6157945;23;20063;-82
2022/01/01 03:40:40;;;;;;;41.58;29.02;;;;;;;2.34;100.00;100518.34;6184331;23;20586;-82
2022/01/01 03:43:05;;;;;;;40.45;29.85;;;;;;;2.34;100.00;100530.09;6157152;23;20013;-82
2022/01/01 03:45:31;;;;;;;38.25;28.40;;;;;;;2.20;100.00;100532.59;6183997;23;20016;-83
2022/01/01 03:47:56;;;;;;;38.25;28.42;;;;;;;2.19;100.00;100533.75;6183789;23;20032;-83
2022/01/01 03:50:22;;;;;;;39.50;28.85;;;;;;;2.21;100.00;100539.66;6183604;23;20455;-82
2022/01/01 03:52:47;;;;;;;39.42;27.77;;;;;;;2.09;100.00;100542.59;6182584;23;20022;-83
2022/01/01 03:55:14;;;;;;;40.80;28.52;;;;;;;2.17;100.00;100552.50;6183514;23;20001;-80
2022/01/01 03:57:39;;;;;;;43.55;30.38;;;;;;;2.21;100.00;100544.34;6183939;23;20017;-80
2022/01/01 04:00:13;;;;;;;43.00;30.90;;;;;;;2.24;100.00;100549.88;6183858;23;20449;-79
2022/01/01 04:02:41;;;;;;;44.78;31.10;;;;;;;2.26;100.00;100553.03;6183487;23;20616;-80
2022/01/01 04:05:07;;;;;;;42.13;29.13;;;;;;;2.21;100.00;100555.28;6183831;23;20024;-79
2022/01/01 04:07:33;;;;;;;39.55;29.48;;;;;;;2.21;100.00;100558.03;6157006;23;20013;-80
2022/01/01 04:09:59;;;;;;;39.78;29.55;;;;;;;2.22;100.00;100565.09;6183395;23;20342;-80
2022/01/01 04:12:25;;;;;;;37.45;28.15;;;;;;;2.00;100.00;100544.00;6155609;23;20009;-79
2022/01/01 04:14:51;;;;;;;34.45;25.23;;;;;;;1.98;100.00;100581.91;6157148;23;20013;-80
2022/01/01 04:17:16;;;;;;;35.47;26.45;;;;;;;1.82;100.00;100574.59;6157061;23;20116;-80
2022/01/01 04:19:42;;;;;;;34.92;25.55;;;;;;;1.81;100.00;100578.50;6131887;23;20009;-79
2022/01/01 04:22:09;;;;;;;32.65;25.30;;;;;;;1.88;100.00;100595.03;6156369;23;20009;-79
2022/01/01 04:24:35;;;;;;;34.22;24.85;;;;;;;1.81;100.00;100589.44;6156093;23;20012;-80
2022/01/01 04:27:02;;;;;;;35.42;24.83;;;;;;;1.79;100.00;100594.47;6156635;23;20032;-80
2022/01/01 04:29:27;;;;;;;33.28;25.27;;;;;;;1.82;100.00;100595.72;6156195;23;20036;-80
2022/01/01 04:31:54;;;;;;;36.53;26.67;;;;;;;1.77;100.00;100591.34;6132036;23;20336;-82
2022/01/01 04:34:19;;;;;;;40.58;28.20;;;;;;;1.84;100.00;100587.91;6182724;23;20092;-80
2022/01/01 04:36:53;;;;;;;40.28;29.05;;;;;;;1.87;100.00;100590.72;6156617;23;20055;-80
2022/01/01 04:39:18;;;;;;;;;;;;;;;1.88;100.00;100603.25;6158627;23;20450;-80
2022/01/01 04:41:44;;;;;;;59.22;40.35;;;;;;;1.76;100.00;100592.47;6156485;23;19981;-80
2022/01/01 04:44:09;;;;;;;54.22;38.05;;;;;;;1.74;100.00;100592.03;6182926;23;20017;-80
2022/01/01 04:46:35;;;;;;;52.00;35.30;;;;;;;1.70;100.00;100596.66;6156051;23;20020;-79
2022/01/01 04:49:01;;;;;;;48.92;33.40;;;;;;;1.67;100.00;100613.78;6131977;23;20028;-79
2022/01/01 04:51:26;;;;;;;48.22;32.50;;;;;;;1.59;100.00;100587.47;6182684;23;20009;-79
2022/01/01 04:53:58;;;;;;;44.40;32.17;;;;;;;1.61;100.00;100598.06;6182445;23;20089;-82
2022/01/01 04:56:28;;;;;;;47.17;32.78;;;;;;;1.62;100.00;100588.72;6182918;23;20013;-82
2022/01/01 04:58:54;;;;;;;39.90;30.20;;;;;;;1.56;100.00;100599.16;6157607;23;20412;-83
2022/01/01 05:01:19;;;;;;;35.85;26.65;;;;;;;1.48;100.00;100596.63;6182342;23;20020;-82
2022/01/01 05:03:45;;;;;;;33.72;25.30;;;;;;;1.42;100.00;100603.56;6156027;23;20509;-82
2022/01/01 05:06:11;;;;;;;35.95;25.83;;;;;;;1.38;100.00;100604.25;6156197;23;20460;-82
2022/01/01 05:08:38;;;;;;;34.85;24.77;;;;;;;1.36;100.00;100611.25;6156344;23;20025;-82
2022/01/01 05:11:04;;;;;;;36.80;25.90;;;;;;;1.33;100.00;100612.00;6182672;23;20036;-82
2022/01/01 05:13:30;;;;;;;38.05;26.15;;;;;;;1.25;100.00;100591.94;6182301;23;20416;-79
2022/01/01 05:15:56;;;;;;;35.40;25.85;;;;;;;1.33;100.00;100609.25;6156671;23;20332;-79
2022/01/01 05:18:22;;;;;;;39.00;27.77;;;;;;;1.30;100.00;100612.69;6182473;23;20462;-79
2022/01/01 05:20:49;;;;;;;35.13;26.17;;;;;;;1.30;100.00;100616.22;6156476;23;20427;-79
2022/01/01 05:23:14;;;;;;;36.25;26.25;;;;;;;1.31;100.00;100614.28;6181468;23;20036;-79
2022/01/01 05:25:40;;;;;;;37.47;27.27;;;;;;;1.31;100.00;100617.81;6156527;23;20494;-79
2022/01/01 05:28:06;;;;;;;39.03;27.33;;;;;;;1.35;100.00;100624.13;6182654;23;20013;-79
2022/01/01 05:30:32;;;;;;;44.00;29.23;;;;;;;1.38;100.00;100619.88;6156392;23;20391;-83
2022/01/01 05:33:01;;;;;;;45.75;30.77;;;;;;;1.48;100.00;100619.31;6156351;23;20456;-80
2022/01/01 05:35:27;;;;;;;48.95;32.05;;;;;;;1.45;100.00;100611.84;6156274;23;20009;-79
2022/01/01 05:37:52;;;;;;;47.35;32.22;;;;;;;1.55;100.00;100624.91;6182918;23;20355;-79
2022/01/01 05:40:18;;;;;;;48.30;31.83;;;;;;;1.53;100.00;100627.22;6130973;23;20013;-80
2022/01/01 05:42:43;;;;;;;43.58;31.38;;;;;;;1.52;100.00;100625.63;6182821;23;20020;-80
2022/01/01 05:45:09;;;;;;;44.00;29.98;;;;;;;1.52;100.00;100636.56;6181725;23;20094;-80
2022/01/01 05:47:35;;;;;;;45.53;31.13;;;;;;;1.53;100.00;100635.41;6156385;23;20065;-80
2022/01/01 05:50:00;;;;;;;44.67;31.00;;;;;;;1.55;100.00;100646.78;6181977;23;20605;-79
2022/01/01 05:52:26;;;;;;;42.92;29.63;;;;;;;1.52;100.00;100647.50;6180444;23;20016;-80
2022/01/01 05:54:52;;;;;;;41.33;29.25;;;;;;;1.51;100.00;100672.47;6155821;23;20013;-79
2022/01/01 05:57:17;;;;;;;38.53;27.95;;;;;;;1.42;100.00;100664.47;6182677;23;20116;-79
2022/01/01 05:59:42;;;;;;;80.35;29.23;;;;;;;1.40;100.00;100664.06;6155879;23;20411;-79
2022/01/01 06:02:09;;;;;;;61.15;29.65;;;;;;;1.31;100.00;100663.47;6155747;23;20032;-79
2022/01/01 06:04:34;;;;;;;64.00;29.42;;;;;;;1.34;100.00;100690.06;6180379;23;20328;-79
2022/01/01 06:07:00;;;;;;;42.13;29.88;;;;;;;1.32;100.00;100687.72;6155174;23;20024;-80
2022/01/01 06:09:25;;;;;;;40.60;29.83;;;;;;;1.34;100.00;100684.63;6181891;23;20001;-83
2022/01/01 06:11:51;;;;;;;49.65;31.58;;;;;;;1.44;100.00;100688.72;6182034;23;20071;-82
2022/01/01 06:14:17;;;;;;;49.03;33.92;;;;;;;1.51;100.00;100695.13;6182284;23;20009;-82
2022/01/01 06:16:42;;;;;;;57.83;37.45;;;;;;;1.59;100.00;100687.84;6181758;23;20009;-83
2022/01/01 06:19:08;;;;;;;65.63;43.38;;;;;;;1.63;100.00;100686.78;6181947;23;20055;-82
2022/01/01 06:21:33;;;;;;;52.25;36.83;;;;;;;1.92;100.00;100684.56;6183139;23;20033;-83
2022/01/01 06:23:59;;;;;;;53.10;35.35;;;;;;;2.02;100.00;100679.31;6157444;23;20101;-83
2022/01/01 06:26:24;;;;;;;48.90;34.13;;;;;;;1.92;100.00;100687.31;6184242;23;20431;-79
2022/01/01 06:28:50;;;;;;;49.15;34.13;;;;;;;2.00;100.00;100694.50;6158127;23;20017;-80
2022/01/01 06:31:15;;;;;;;47.72;33.00;;;;;;;1.90;100.00;100706.06;6184145;23;20020;-80
2022/01/01 06:33:41;;;;;;;44.00;32.47;;;;;;;1.84;100.00;100700.06;6157507;23;20436;-80
2022/01/01 06:36:06;;;;;;;45.17;31.55;;;;;;;1.81;100.00;100698.88;6183888;23;20023;-80
2022/01/01 06:38:32;;;;;;;39.28;27.85;;;;;;;1.96;100.00;100693.63;6183959;23;20377;-80
2022/01/01 06:40:57;;;;;;;47.20;29.27;;;;;;;2.26;100.00;100702.81;6184141;23;20009;-80
2022/01/01 06:43:23;;;;;;;48.72;34.28;;;;;;;2.55;100.00;100699.34;6183681;23;20143;-80
2022/01/01 06:45:49;;;;;;;45.38;29.67;;;;;;;2.73;100.00;100705.91;6184045;23;20013;-80
2022/01/01 06:48:15;;;;;;;43.50;28.20;;;;;;;3.06;100.00;100701.72;6184305;23;20023;-83
2022/01/01 06:50:40;;;;;;;37.45;26.38;;;;;;;3.25;100.00;100698.84;6183873;23;20439;-83
2022/01/01 06:53:06;;;;;;;36.67;23.55;;;;;;;3.50;100.00;100716.41;6183635;23;20040;-83
2022/01/01 06:55:31;;;;;;;32.97;21.25;;;;;;;3.67;100.00;100712.31;6157593;23;20087;-83
2022/01/01 06:57:57;;;;;;;31.95;20.55;;;;;;;3.86;100.00;100719.56;6184189;23;20088;-83
2022/01/01 07:00:22;;;;;;;27.67;19.10;;;;;;;4.09;100.00;100726.50;6183221;23;20017;-82
2022/01/01 07:02:49;;;;;;;25.73;17.38;;;;;;;4.24;100.00;100727.44;6183359;23;20440;-83
2022/01/01 07:05:15;;;;;;;26.77;18.33;;;;;;;4.44;100.00;100726.06;6183863;23;20009;-83
2022/01/01 07:07:41;;;;;;;25.13;15.73;;;;;;;4.56;100.00;100725.78;6183755;23;20013;-82
2022/01/01 07:10:09;;;;;;;24.60;16.95;;;;;;;4.69;100.00;100729.78;6157527;23;20019;-83
2022/01/01 07:12:35;;;;;;;25.15;15.35;;;;;;;4.83;100.00;100736.56;6157077;23;20024;-83
2022/01/01 07:15:03;;;;;;;21.73;14.02;;;;;;;5.03;100.00;100732.41;6183365;23;20013;-83
2022/01/01 07:17:28;;;;;;;17.38;12.20;;;;;;;5.36;100.00;100736.94;6156895;23;20147;-82
2022/01/01 07:19:54;;;;;;;15.93;10.65;;;;;;;5.63;100.00;100736.28;6132579;23;20097;-83
2022/01/01 07:22:19;;;;;;;14.90;10.60;;;;;;;5.86;100.00;100729.69;6132825;23;20039;-83
2022/01/01 07:24:45;;;;;;;14.00;9.90;;;;;;;6.22;100.00;100731.41;6156593;23;20037;-83
2022/01/01 07:27:14;;;;;;;12.30;8.70;;;;;;;6.58;100.00;100740.50;6157295;23;20013;-83
2022/01/01 07:29:39;;;;;;;11.43;7.88;;;;;;;6.80;100.00;100747.56;6183632;23;20013;-82
2022/01/01 07:32:06;;;;;;;10.82;7.72;;;;;;;6.95;100.00;100743.66;6132244;23;20017;-83
2022/01/01 07:34:32;;;;;;;9.32;7.07;;;;;;;7.24;100.00;100747.13;6156938;23;20370;-83
2022/01/01 07:36:57;;;;;;;9.00;6.70;;;;;;;7.57;100.00;100742.31;6157637;23;20076;-82
2022/01/01 07:39:23;;;;;;;10.10;6.75;;;;;;;7.86;100.00;100739.06;6132326;23;20044;-83
2022/01/01 07:41:48;;;;;;;8.52;6.15;;;;;;;7.92;100.00;100728.38;6156962;23;20009;-83
2022/01/01 07:44:14;;;;;;;9.05;7.20;;;;;;;8.15;100.00;100747.22;6183158;23;20037;-80
2022/01/01 07:46:39;;;;;;;10.13;7.72;;;;;;;8.26;100.00;100748.72;6132771;23;20009;-83
2022/01/01 07:49:05;;;;;;;10.43;6.60;;;;;;;8.50;100.00;100751.75;6132013;23;20312;-83
2022/01/01 07:51:31;;;;;;;9.43;6.95;;;;;;;8.68;100.00;100741.34;6156897;23;20013;-82
2022/01/01 07:53:57;;;;;;;8.05;6.15;;;;;;;8.78;100.00;100746.78;6156945;23;20037;-83
2022/01/01 07:56:23;;;;;;;8.95;5.63;;;;;;;8.95;100.00;100742.31;6182811;23;20037;-83
2022/01/01 07:58:48;;;;;;;8.45;5.95;;;;;;;9.25;100.00;100745.19;6156824;23;20025;-83
2022/01/01 08:01:14;;;;;;;10.55;8.05;;;;;;;9.18;100.00;100736.94;6132344;23;20459;-83
2022/01/01 08:03:39;;;;;;;11.00;7.60;;;;;;;9.19;100.00;100744.06;6156217;23;20049;-80
2022/01/01 08:06:05;;;;;;;9.00;6.25;;;;;;;9.13;100.00;100750.47;6183482;23;20438;-83
2022/01/01 08:08:30;;;;;;;8.88;6.10;;;;;;;9.19;100.00;100748.81;6156203;23;20009;-83
2022/01/01 08:10:56;;;;;;;12.88;8.20;;;;;;;9.22;100.00;100743.22;6156467;23;20325;-83
2022/01/01 08:13:24;;;;;;;12.07;7.53;;;;;;;9.22;100.00;100745.25;6183072;23;20009;-83
2022/01/01 08:15:50;;;;;;;15.13;10.35;;;;;;;9.30;100.00;100766.88;6157677;23;20017;-83
2022/01/01 08:18:17;;;;;;;11.10;8.63;;;;;;;9.36;100.00;100765.25;6156925;23;20040;-83
2022/01/01 08:20:42;;;;;;;10.38;7.45;;;;;;;9.51;100.00;100781.69;6131798;23;20009;-82
2022/01/01 08:23:08;;;;;;;8.05;5.63;;;;;;;9.60;100.00;100790.31;6107507;23;20043;-80
2022/01/01 08:25:34;;;;;;;7.22;5.07;;;;;;;9.58;100.00;100781.66;6131730;23;20090;-81
2022/01/01 08:27:59;;;;;;;7.80;5.13;;;;;;;9.57;100.00;100791.16;6131870;23;20009;-81
2022/01/01 08:30:25;;;;;;;6.13;4.68;;;;;;;9.70;100.00;100783.88;6131548;23;20013;-81
2022/01/01 08:32:50;;;;;;;6.70;5.18;;;;;;;9.84;100.00;100789.25;6131832;23;20122;-81
2022/01/01 08:35:16;;;;;;;6.95;5.20;;;;;;;9.84;100.00;100783.72;6132027;23;20464;-81
2022/01/01 08:37:41;;;;;;;6.97;5.40;;;;;;;9.93;100.00;100791.53;6107573;23;20063;-80
2022/01/01 08:40:08;;;;;;;8.60;6.07;;;;;;;10.01;100.00;100785.50;6131770;23;20005;-82
2022/01/01 08:42:33;;;;;;;13.25;11.85;;;;;;;10.00;100.00;100788.66;6182657;23;20088;-80
2022/01/01 08:44:59;;;;;;;12.68;11.32;;;;;;;10.09;100.00;100798.06;6156029;23;20036;-81
2022/01/01 08:47:26;;;;;;;15.30;11.85;;;;;;;10.02;100.00;100789.84;6156844;23;20754;-81
2022/01/01 08:49:55;;;;;;;11.50;9.13;;;;;;;10.07;100.00;100789.34;6156922;23;20094;-81
2022/01/01 08:52:22;;;;;;;12.73;9.65;;;;;;;10.18;100.00;100794.81;6156271;23;20480;-81
2022/01/01 08:54:49;;;;;;;10.73;8.18;;;;;;;10.33;100.00;100803.72;6156395;23;20016;-81
2022/01/01 08:57:16;;;;;;;12.70;9.55;;;;;;;10.48;100.00;100816.19;6131941;23;20067;-81
2022/01/01 08:59:41;;;;;;;12.27;9.13;;;;;;;10.60;100.00;100818.38;6107371;23;20384;-80
2022/01/01 09:02:07;;;;;;;11.00;7.95;;;;;;;10.61;100.00;100820.75;6131966;23;20041;-82
2022/01/01 09:04:32;;;;;;;8.90;6.32;;;;;;;10.79;99.98;100823.28;6131375;23;20020;-83
2022/01/01 09:06:58;;;;;;;8.68;6.60;;;;;;;10.95;99.59;100836.50;6131217;23;20228;-82
2022/01/01 09:09:23;;;;;;;8.18;6.20;;;;;;;11.11;100.00;100837.44;6156035;23;20017;-82
2022/01/01 09:11:49;;;;;;;8.68;6.97;;;;;;;11.11;98.35;100843.00;6182734;23;20055;-82
2022/01/01 09:14:15;;;;;;;7.93;6.50;;;;;;;11.23;99.52;100844.41;6156411;23;20005;-83
2022/01/01 09:16:40;;;;;;;13.40;11.95;;;;;;;11.10;95.40;100848.97;6131916;23;20013;-82
2022/01/01 09:19:06;;;;;;;10.05;8.88;;;;;;;10.96;97.29;100849.19;6155973;23;20017;-82
2022/01/01 09:21:31;;;;;;;8.73;6.30;;;;;;;11.03;98.53;100854.63;6155542;23;20084;-81
2022/01/01 09:23:57;;;;;;;5.68;5.05;;;;;;;11.11;98.18;100853.31;6155972;23;20067;-81
2022/01/01 09:26:23;;;;;;;6.15;4.20;;;;;;;11.40;93.14;100853.63;6107116;23;20390;-81
2022/01/01 09:28:48;;;;;;;5.22;4.07;;;;;;;11.51;94.75;100848.69;6131238;23;20486;-81
2022/01/01 09:31:14;;;;;;;5.65;4.20;;;;;;;11.61;94.58;100847.69;6131733;23;20024;-81
2022/01/01 09:33:39;;;;;;;5.55;3.97;;;;;;;11.70;93.52;100856.25;6131283;23;20055;-81
2022/01/01 09:36:06;;;;;;;4.30;3.20;;;;;;;11.78;92.28;100841.06;6106485;23;20025;-81
2022/01/01 09:38:32;;;;;;;5.32;3.58;;;;;;;11.94;91.10;100849.47;6181679;23;20008;-82
2022/01/01 09:40:58;;;;;;;4.05;3.28;;;;;;;12.05;90.35;100843.72;6133117;23;20092;-80
2022/01/01 09:43:26;;;;;;;3.72;2.53;;;;;;;12.13;88.73;100845.91;6135183;23;20036;-80
2022/01/01 09:45:53;;;;;;;5.20;2.90;;;;;;;12.28;88.13;100846.44;6134503;23;20022;-80
2022/01/01 09:48:21;;;;;;;4.38;2.85;;;;;;;12.42;86.05;100840.53;6110430;23;20021;-81
2022/01/01 09:50:54;;;;;;;4.85;3.42;;;;;;;12.78;83.14;100854.47;6134910;23;20531;-80
2022/01/01 09:53:20;;;;;;;3.47;2.70;;;;;;;12.95;79.95;100844.91;6159485;23;20475;-80
2022/01/01 09:55:47;;;;;;;5.20;2.78;;;;;;;13.17;77.76;100844.44;6158422;23;20009;-80
2022/01/01 09:58:13;;;;;;;5.00;3.50;;;;;;;13.20;79.18;100830.44;6160057;23;20316;-80
2022/01/01 10:00:38;;;;;;;4.95;3.08;;;;;;;13.32;77.51;100829.72;6133231;23;20021;-81
2022/01/01 10:03:04;;;;;;;4.45;3.05;;;;;;;13.55;75.82;100837.09;6132232;23;20020;-81
2022/01/01 10:05:29;;;;;;;4.10;2.83;;;;;;;13.69;75.50;100839.50;6158861;23;20019;-81
2022/01/01 10:08:00;;;;;;;3.60;2.90;;;;;;;13.80;73.35;100837.22;6134747;23;20112;-81
2022/01/01 10:10:26;;;;;;;4.13;2.90;;;;;;;13.92;74.09;100825.31;6158988;23;20461;-81
2022/01/01 10:12:52;;;;;;;4.68;2.72;;;;;;;14.06;73.10;100829.72;6133624;23;20017;-81
2022/01/01 10:15:19;;;;;;;4.43;3.22;;;;;;;14.25;71.38;100825.19;6132807;23;20013;-82
2022/01/01 10:17:46;;;;;;;4.05;3.15;;;;;;;14.39;70.31;100822.03;6131328;23;20024;-81
2022/01/01 10:20:12;;;;;;;3.67;2.60;;;;;;;14.42;69.49;100815.56;6156074;23;20005;-81
2022/01/01 10:22:39;;;;;;;3.38;2.70;;;;;;;14.51;69.55;100806.53;6155587;23;20447;-81
2022/01/01 10:27:56;;;;;;;3.90;2.53;;;;;;;15.01;66.27;100811.31;6159535;23;20032;-82
2022/01/01 10:30:24;;;;;;;2.88;1.70;;;;;;;15.15;64.35;100794.88;6130608;23;20023;-82
2022/01/01 10:33:09;;;;;;;3.67;2.80;;;;;;;15.31;66.69;100805.91;6131674;23;20626;-82
2022/01/01 10:35:46;;;;;;;2.35;1.90;;;;;;;15.49;65.69;100810.13;6131577;23;20017;-82
2022/01/01 10:38:20;;;;;;;2.42;1.75;;;;;;;15.68;62.03;100809.84;6108963;23;20024;-82
2022/01/01 10:40:46;;;;;;;2.75;2.00;;;;;;;15.80;64.76;100795.03;6132548;23;20027;-81
2022/01/01 10:43:16;;;;;;;2.53;1.75;;;;;;;16.05;62.75;100801.72;6109014;23;20402;-82
2022/01/01 10:45:48;;;;;;;3.00;1.90;;;;;;;16.11;60.27;100819.47;6133611;23;20100;-81
2022/01/01 10:48:29;;;;;;;2.38;1.70;;;;;;;15.96;63.24;100815.66;6134303;23;20048;-81
2022/01/01 10:50:56;;;;;;;2.58;1.80;;;;;;;15.94;62.49;100812.50;6134196;23;20021;-82
2022/01/01 10:53:27;;;;;;;2.88;1.73;;;;;;;16.07;61.12;100807.63;6155455;23;20013;-82
2022/01/01 10:55:59;;;;;;;2.83;1.80;;;;;;;16.25;62.82;100818.97;6131191;23;20444;-82
2022/01/01 10:58:29;;;;;;;2.70;1.80;;;;;;;16.32;60.27;100813.88;6131895;23;20021;-82
2022/01/01 11:01:07;;;;;;;2.65;1.42;;;;;;;16.32;60.24;100815.88;6156498;23;20013;-82
2022/01/01 11:03:41;;;;;;;2.72;1.50;;;;;;;16.37;59.40;100803.31;6131579;23;20029;-82
2022/01/01 11:06:18;;;;;;;2.85;1.67;;;;;;;16.38;59.80;100794.44;6156341;23;20497;-82
2022/01/01 11:08:45;;;;;;;2.17;1.40;;;;;;;16.46;57.68;100790.13;6131410;23;20455;-82
2022/01/01 11:11:13;;;;;;;1.80;1.40;;;;;;;16.46;57.58;100801.34;6131599;23;20011;-82